Time;durP1;ratioP1;P1;durP2;ratioP2;P2;SDS_P1;SDS_P2;PMS_P1;PMS_P2;Temp;Humidity;BMP_temperature;BMP_pressure;BME280_temperature;BME280_humidity;BME280_pressure;Samples;Min_cycle;Max_cycle;Signal;HPM_P1;HPM_P2
2020/12/13 00:00:30;;;;;;;;;;;7.80;85.40;;;;;;5002632;28;19929;-43
2020/12/13 00:02:58;;;;;;;;;;;7.80;85.50;;;;;;5006206;28;19929;-45
2020/12/13 00:05:25;;;;;;;;;;;7.80;85.60;;;;;;5005830;28;20242;-45
2020/12/13 00:07:55;;;;;;;;;;;7.80;85.50;;;;;;5005386;28;19964;-46
2020/12/13 00:10:22;;;;;;;;;;;7.80;85.50;;;;;;5003879;28;19941;-46
2020/12/13 00:12:48;;;;;;;;;;;7.80;85.50;;;;;;5009594;28;20018;-46
2020/12/13 00:15:17;;;;;;;;;;;7.80;85.50;;;;;;5004896;28;20460;-45
2020/12/13 00:17:45;;;;;;;;;;;7.80;85.50;;;;;;5003770;28;20347;-45
2020/12/13 00:20:11;;;;;;;;;;;7.80;85.60;;;;;;5004202;28;20292;-47
2020/12/13 00:22:37;;;;;;;;;;;7.80;85.60;;;;;;5006256;28;19925;-44
2020/12/13 00:25:03;;;;;;;;;;;7.80;85.60;;;;;;5003197;28;19936;-46
2020/12/13 00:27:29;;;;;;;;;;;7.80;85.50;;;;;;5005483;28;19925;-44
2020/12/13 00:29:55;;;;;;;;;;;7.80;85.60;;;;;;5004053;28;19940;-47
2020/12/13 00:32:26;;;;;;;;;;;7.80;85.60;;;;;;5008361;28;19925;-43
2020/12/13 00:34:52;;;;;;;;;;;7.80;85.50;;;;;;5007200;28;19980;-47
2020/12/13 00:37:18;;;;;;;;;;;7.80;85.50;;;;;;5006341;28;20427;-46
2020/12/13 00:39:45;;;;;;;;;;;7.80;85.40;;;;;;5003839;28;19932;-46
2020/12/13 00:42:11;;;;;;;;;;;7.80;85.40;;;;;;5006624;28;19933;-45
2020/12/13 00:44:37;;;;;;;;;;;7.80;85.50;;;;;;5003018;28;20027;-45
2020/12/13 00:47:03;;;;;;;;;;;7.80;85.40;;;;;;5005313;28;19933;-47
2020/12/13 00:49:29;;;;;;;;;;;7.80;85.40;;;;;;4999726;28;19933;-47
2020/12/13 00:51:59;;;;;;;;;;;7.80;85.40;;;;;;5003253;28;19925;-46
2020/12/13 00:54:26;;;;;;;;;;;7.80;85.40;;;;;;5003637;28;19964;-44
2020/12/13 00:56:52;;;;;;;;;;;7.80;85.40;;;;;;5007395;28;19933;-44
2020/12/13 00:59:18;;;;;;;;;;;7.80;85.40;;;;;;5006748;28;20376;-46
2020/12/13 01:01:44;;;;;;;;;;;7.80;85.40;;;;;;5008088;28;19932;-47
2020/12/13 01:04:11;;;;;;;;;;;7.80;85.40;;;;;;5012379;28;19929;-46
2020/12/13 01:06:37;;;;;;;;;;;7.80;85.40;;;;;;5007357;28;20304;-47
2020/12/13 01:09:03;;;;;;;;;;;7.80;85.40;;;;;;5009945;28;19925;-45
2020/12/13 01:11:31;;;;;;;;;;;7.80;85.50;;;;;;5005330;28;20400;-46
2020/12/13 01:13:57;;;;;;;;;;;7.80;85.50;;;;;;5005250;28;19933;-44
2020/12/13 01:16:25;;;;;;;;;;;7.80;85.40;;;;;;5002993;28;19933;-47
2020/12/13 01:18:52;;;;;;;;;;;7.80;85.30;;;;;;5007714;28;19944;-44
2020/12/13 01:21:19;;;;;;;;;;;7.80;85.40;;;;;;5005811;28;19925;-45
2020/12/13 01:23:49;;;;;;;;;;;7.80;85.40;;;;;;5019804;28;20024;-47
2020/12/13 01:26:16;;;;;;;;;;;7.80;85.30;;;;;;5006597;28;19933;-47
2020/12/13 01:28:42;;;;;;;;;;;7.80;85.40;;;;;;5005782;28;19939;-45
2020/12/13 01:31:11;;;;;;;;;;;7.80;85.30;;;;;;5007145;28;19926;-46
2020/12/13 01:33:37;;;;;;;;;;;7.80;85.30;;;;;;5010046;28;20003;-43
2020/12/13 01:36:03;;;;;;;;;;;7.80;85.30;;;;;;5002594;28;19925;-46
2020/12/13 01:38:30;;;;;;;;;;;7.80;85.20;;;;;;5006572;28;20403;-45
2020/12/13 01:40:56;;;;;;;;;;;7.80;85.30;;;;;;5010396;28;19936;-46
2020/12/13 01:43:23;;;;;;;;;;;7.80;85.20;;;;;;5010802;28;19944;-47
2020/12/13 01:45:51;;;;;;;;;;;7.80;85.30;;;;;;5007159;28;19926;-44
2020/12/13 01:48:18;;;;;;;;;;;7.80;85.20;;;;;;5006361;28;20366;-47
2020/12/13 01:50:54;;;;;;;;;;;7.80;85.30;;;;;;5006889;28;19930;-46
2020/12/13 01:53:24;;;;;;;;;;;7.80;85.20;;;;;;5005846;28;20373;-46
2020/12/13 01:55:52;;;;;;;;;;;7.80;85.30;;;;;;5019684;28;19975;-46
2020/12/13 01:58:31;;;;;;;;;;;7.80;85.30;;;;;;5006454;28;19939;-45
2020/12/13 02:00:58;;;;;;;;;;;7.70;85.30;;;;;;5007622;28;19925;-46
2020/12/13 02:03:28;;;;;;;;;;;7.80;85.30;;;;;;5007366;28;19933;-45
2020/12/13 02:06:00;;;;;;;;;;;7.80;85.30;;;;;;5004479;28;19932;-46
2020/12/13 02:08:35;;;;;;;;;;;7.80;85.40;;;;;;5007602;28;20594;-46
2020/12/13 02:11:02;;;;;;;;;;;7.80;85.40;;;;;;5004799;28;20124;-46
2020/12/13 02:13:28;;;;;;;;;;;7.80;85.40;;;;;;5005677;28;20923;-45
2020/12/13 02:15:54;;;;;;;;;;;7.80;85.40;;;;;;5006607;28;19929;-45
2020/12/13 02:18:20;;;;;;;;;;;7.80;85.40;;;;;;5006694;28;19935;-47
2020/12/13 02:20:47;;;;;;;;;;;7.80;85.30;;;;;;5019758;28;19935;-45
2020/12/13 02:23:13;;;;;;;;;;;7.80;85.40;;;;;;5012024;28;19934;-46
2020/12/13 02:25:39;;;;;;;;;;;7.80;85.40;;;;;;5006078;28;19929;-44
2020/12/13 02:28:05;;;;;;;;;;;7.80;85.40;;;;;;5007212;28;20296;-46
2020/12/13 02:30:32;;;;;;;;;;;7.80;85.40;;;;;;5019703;28;19933;-46
2020/12/13 02:32:58;;;;;;;;;;;7.80;85.40;;;;;;5007354;28;19955;-46
2020/12/13 02:35:25;;;;;;;;;;;7.80;85.40;;;;;;5007199;28;20365;-44
2020/12/13 02:37:52;;;;;;;;;;;7.80;85.40;;;;;;5005427;28;19936;-47
2020/12/13 02:40:18;;;;;;;;;;;7.80;85.50;;;;;;5005579;28;20385;-46
2020/12/13 02:42:44;;;;;;;;;;;7.80;85.50;;;;;;5005156;28;19929;-45
2020/12/13 02:45:11;;;;;;;;;;;7.80;85.40;;;;;;5006824;28;20433;-44
2020/12/13 02:47:37;;;;;;;;;;;7.80;85.50;;;;;;5007629;28;20008;-44
2020/12/13 02:50:04;;;;;;;;;;;7.80;85.50;;;;;;5005785;28;22170;-46
2020/12/13 02:52:30;;;;;;;;;;;7.80;85.50;;;;;;5010560;28;19940;-45
2020/12/13 02:55:00;;;;;;;;;;;7.80;85.50;;;;;;5005350;28;19925;-46
2020/12/13 02:57:26;;;;;;;;;;;7.80;85.50;;;;;;5006846;28;19933;-44
2020/12/13 02:59:52;;;;;;;;;;;7.80;85.50;;;;;;5003700;28;19934;-46
2020/12/13 03:02:18;;;;;;;;;;;7.80;85.50;;;;;;5003902;28;19925;-46
2020/12/13 03:04:44;;;;;;;;;;;7.90;85.50;;;;;;5006497;28;20345;-47
2020/12/13 03:07:10;;;;;;;;;;;7.90;85.50;;;;;;5008622;28;19929;-45
2020/12/13 03:09:37;;;;;;;;;;;7.90;85.50;;;;;;5003814;28;19929;-45
2020/12/13 03:12:04;;;;;;;;;;;7.90;85.60;;;;;;5007635;28;19957;-45
2020/12/13 03:14:30;;;;;;;;;;;7.90;85.70;;;;;;5007106;28;19980;-46
2020/12/13 03:16:56;;;;;;;;;;;7.90;85.60;;;;;;5004762;28;20387;-47
2020/12/13 03:19:23;;;;;;;;;;;7.90;85.60;;;;;;5004846;28;19952;-44
2020/12/13 03:21:52;;;;;;;;;;;7.90;85.60;;;;;;5005132;28;20383;-45
2020/12/13 03:24:18;;;;;;;;;;;7.90;85.50;;;;;;5006565;28;20364;-45
2020/12/13 03:26:44;;;;;;;;;;;7.90;85.50;;;;;;5003360;28;19964;-44
2020/12/13 03:29:10;;;;;;;;;;;7.90;85.40;;;;;;5003935;28;20303;-45
2020/12/13 03:31:37;;;;;;;;;;;7.90;85.50;;;;;;5005862;28;19925;-46
2020/12/13 03:34:03;;;;;;;;;;;7.90;85.40;;;;;;5004919;28;19936;-47
2020/12/13 03:36:30;;;;;;;;;;;7.90;85.40;;;;;;5003091;28;20177;-47
2020/12/13 03:38:56;;;;;;;;;;;7.90;85.40;;;;;;5005730;28;19929;-44
2020/12/13 03:41:22;;;;;;;;;;;7.80;85.40;;;;;;5004226;28;19926;-45
2020/12/13 03:43:48;;;;;;;;;;;7.90;85.50;;;;;;5005374;28;19933;-43
2020/12/13 03:46:16;;;;;;;;;;;7.80;85.50;;;;;;5003580;28;19933;-44
2020/12/13 03:48:46;;;;;;;;;;;7.80;85.50;;;;;;5009949;28;19960;-46
2020/12/13 03:51:12;;;;;;;;;;;7.80;85.70;;;;;;5006336;28;19931;-45
2020/12/13 03:53:38;;;;;;;;;;;7.80;85.90;;;;;;5007183;28;20956;-47
2020/12/13 03:56:04;;;;;;;;;;;7.80;85.70;;;;;;5003311;28;19934;-45
2020/12/13 03:58:30;;;;;;;;;;;7.80;85.70;;;;;;5002858;28;19936;-47
2020/12/13 04:00:56;;;;;;;;;;;7.90;85.60;;;;;;5006109;28;19929;-45
2020/12/13 04:03:22;;;;;;;;;;;7.90;85.50;;;;;;5003495;28;19925;-43
2020/12/13 04:05:49;;;;;;;;;;;7.90;85.50;;;;;;5004160;28;19929;-44
2020/12/13 04:08:15;;;;;;;;;;;7.90;85.40;;;;;;5004119;28;19937;-46
2020/12/13 04:10:41;;;;;;;;;;;7.90;85.40;;;;;;5006604;28;19932;-46
2020/12/13 04:13:08;;;;;;;;;;;7.90;85.40;;;;;;5003707;28;19933;-46
2020/12/13 04:15:35;;;;;;;;;;;7.90;85.50;;;;;;5005658;28;19933;-45
2020/12/13 04:18:01;;;;;;;;;;;7.90;85.40;;;;;;5006123;28;19932;-46
2020/12/13 04:20:30;;;;;;;;;;;7.90;85.50;;;;;;5020416;28;20478;-45
2020/12/13 04:22:56;;;;;;;;;;;7.90;85.50;;;;;;5003188;28;20357;-44
2020/12/13 04:25:25;;;;;;;;;;;7.90;85.50;;;;;;5005333;28;20008;-44
2020/12/13 04:27:52;;;;;;;;;;;7.90;85.50;;;;;;5008177;28;19936;-46
2020/12/13 04:30:18;;;;;;;;;;;7.90;85.50;;;;;;5010172;28;20007;-45
2020/12/13 04:32:44;;;;;;;;;;;7.90;85.40;;;;;;5005446;28;20409;-47
2020/12/13 04:35:11;;;;;;;;;;;7.90;85.40;;;;;;5009122;28;19956;-47
2020/12/13 04:37:37;;;;;;;;;;;7.90;85.40;;;;;;5011148;28;20016;-44
2020/12/13 04:40:04;;;;;;;;;;;7.90;85.40;;;;;;5025183;28;19936;-46
2020/12/13 04:42:33;;;;;;;;;;;7.90;85.40;;;;;;5007335;28;19926;-43
2020/12/13 04:45:00;;;;;;;;;;;7.90;85.40;;;;;;5008775;28;19933;-46
2020/12/13 04:47:27;;;;;;;;;;;7.90;85.40;;;;;;5007286;28;20277;-45
2020/12/13 04:49:54;;;;;;;;;;;7.90;85.50;;;;;;5008716;28;19925;-46
2020/12/13 04:52:20;;;;;;;;;;;7.90;85.50;;;;;;5007775;28;19936;-46
2020/12/13 04:54:48;;;;;;;;;;;7.90;85.50;;;;;;5007978;28;19925;-46
2020/12/13 04:57:14;;;;;;;;;;;7.90;85.50;;;;;;5001946;28;20236;-45
2020/12/13 04:59:40;;;;;;;;;;;7.90;85.50;;;;;;5007946;28;19934;-47
2020/12/13 05:02:07;;;;;;;;;;;7.90;85.50;;;;;;5006155;28;19941;-43
2020/12/13 05:04:33;;;;;;;;;;;7.90;85.50;;;;;;5007404;28;19933;-46
2020/12/13 05:07:00;;;;;;;;;;;7.90;85.50;;;;;;5006197;28;19930;-46
2020/12/13 05:09:26;;;;;;;;;;;7.90;85.60;;;;;;5023383;28;19944;-44
2020/12/13 05:11:52;;;;;;;;;;;7.90;85.50;;;;;;5006710;28;19925;-47
2020/12/13 05:14:19;;;;;;;;;;;7.90;85.50;;;;;;5022410;28;19932;-46
2020/12/13 05:16:45;;;;;;;;;;;7.90;85.50;;;;;;5005635;28;19929;-47
2020/12/13 05:19:12;;;;;;;;;;;7.90;85.50;;;;;;5007765;28;20039;-44
2020/12/13 05:21:38;;;;;;;;;;;7.90;85.40;;;;;;4995378;28;20305;-43
2020/12/13 05:24:07;;;;;;;;;;;7.90;85.40;;;;;;5007671;28;19929;-45
2020/12/13 05:26:34;;;;;;;;;;;7.90;85.30;;;;;;5006851;28;20028;-46
2020/12/13 05:29:02;;;;;;;;;;;7.90;85.40;;;;;;5005655;28;19932;-45
2020/12/13 05:31:29;;;;;;;;;;;7.90;85.40;;;;;;5008049;28;19925;-44
2020/12/13 05:34:05;;;;;;;;;;;7.90;85.40;;;;;;5007568;28;20298;-45
2020/12/13 05:36:35;;;;;;;;;;;7.90;85.40;;;;;;5008184;28;19936;-46
2020/12/13 05:39:01;;;;;;;;;;;8.00;85.40;;;;;;5007184;28;19932;-45
2020/12/13 05:41:36;;;;;;;;;;;7.90;85.40;;;;;;5004576;28;19933;-47
2020/12/13 05:45:06;;;;;;;;;;;8.00;85.50;;;;;;5008931;28;19930;-44
2020/12/13 05:47:16;;;;;;;;;;;8.00;85.50;;;;;;5000453;28;19925;-45
2020/12/13 05:52:50;;;;;;;;;;;7.90;85.50;;;;;;4966188;28;19936;-44
2020/12/13 05:55:17;;;;;;;;;;;7.90;85.50;;;;;;4967542;28;19934;-47
2020/12/13 05:57:45;;;;;;;;;;;7.90;85.50;;;;;;4974924;28;19939;-46
2020/12/13 06:00:11;;;;;;;;;;;7.90;85.40;;;;;;5006624;28;19964;-45
2020/12/13 06:02:38;;;;;;;;;;;7.90;85.40;;;;;;5008720;28;19947;-44
2020/12/13 06:05:12;;;;;;;;;;;7.90;85.40;;;;;;4997875;28;19925;-47
2020/12/13 06:07:43;;;;;;;;;;;7.90;85.40;;;;;;5002964;28;20284;-46
2020/12/13 06:10:09;;;;;;;;;;;7.90;85.40;;;;;;5006133;28;19935;-46
2020/12/13 06:12:37;;;;;;;;;;;7.90;85.40;;;;;;5000255;28;19972;-45
2020/12/13 06:15:03;;;;;;;;;;;7.90;85.40;;;;;;5004956;28;19929;-44
2020/12/13 06:17:29;;;;;;;;;;;7.90;85.50;;;;;;5005383;28;20396;-46
2020/12/13 06:19:55;;;;;;;;;;;7.90;85.50;;;;;;5005522;28;19941;-43
2020/12/13 06:22:24;;;;;;;;;;;7.90;85.50;;;;;;5006241;28;20399;-46
2020/12/13 06:24:53;;;;;;;;;;;7.90;85.50;;;;;;5004517;28;19936;-45
2020/12/13 06:27:20;;;;;;;;;;;7.90;85.50;;;;;;5003074;28;19960;-47
2020/12/13 06:29:47;;;;;;;;;;;7.90;85.50;;;;;;5006585;28;19930;-44
2020/12/13 06:32:13;;;;;;;;;;;7.90;85.60;;;;;;5007009;28;19925;-46
2020/12/13 06:34:44;;;;;;;;;;;7.90;85.50;;;;;;5006089;28;20196;-47
2020/12/13 06:37:11;;;;;;;;;;;7.90;85.50;;;;;;5005423;28;19932;-46
2020/12/13 06:39:38;;;;;;;;;;;7.90;85.50;;;;;;5006756;28;19925;-44
2020/12/13 06:42:05;;;;;;;;;;;7.90;85.60;;;;;;5007037;28;19929;-45
2020/12/13 06:44:31;;;;;;;;;;;7.90;85.50;;;;;;5006947;28;19933;-43
2020/12/13 06:46:57;;;;;;;;;;;7.90;85.60;;;;;;5008763;28;20588;-44
2020/12/13 06:49:23;;;;;;;;;;;7.90;85.60;;;;;;5006627;28;19964;-47
2020/12/13 06:51:52;;;;;;;;;;;7.90;85.60;;;;;;5006925;28;20261;-44
2020/12/13 06:54:18;;;;;;;;;;;7.90;85.60;;;;;;5006020;28;19929;-45
2020/12/13 06:56:47;;;;;;;;;;;7.90;85.70;;;;;;5005528;28;19947;-46
2020/12/13 06:59:14;;;;;;;;;;;7.90;85.70;;;;;;5006265;28;20287;-47
2020/12/13 07:01:44;;;;;;;;;;;7.90;85.70;;;;;;5003106;28;19940;-44
2020/12/13 07:04:37;;;;;;;;;;;7.90;85.70;;;;;;5004873;28;19929;-44
2020/12/13 07:07:15;;;;;;;;;;;8.00;85.70;;;;;;5007643;28;19929;-45
2020/12/13 07:09:41;;;;;;;;;;;7.90;85.80;;;;;;5005690;28;19925;-46
2020/12/13 07:12:09;;;;;;;;;;;7.90;85.70;;;;;;5004882;28;19939;-43
2020/12/13 07:14:38;;;;;;;;;;;8.00;85.70;;;;;;5005288;28;19988;-44
2020/12/13 07:17:06;;;;;;;;;;;7.90;85.70;;;;;;5006303;28;20312;-44
2020/12/13 07:19:34;;;;;;;;;;;8.00;85.70;;;;;;5006969;28;19929;-46
2020/12/13 07:22:02;;;;;;;;;;;7.90;85.70;;;;;;5005888;28;19940;-46
2020/12/13 07:24:28;;;;;;;;;;;8.00;85.70;;;;;;5007111;28;19929;-46
2020/12/13 07:26:55;;;;;;;;;;;8.00;85.70;;;;;;5005868;28;19925;-47
2020/12/13 07:29:21;;;;;;;;;;;7.90;85.70;;;;;;5007204;28;19931;-47
2020/12/13 07:31:47;;;;;;;;;;;8.00;85.70;;;;;;5005031;28;19933;-44
2020/12/13 07:34:13;;;;;;;;;;;8.00;85.70;;;;;;5005935;28;20489;-46
2020/12/13 07:36:40;;;;;;;;;;;8.00;85.70;;;;;;5006046;28;19933;-46
2020/12/13 07:39:07;;;;;;;;;;;8.00;85.80;;;;;;5006384;28;20362;-45
2020/12/13 07:41:35;;;;;;;;;;;8.00;85.90;;;;;;5007503;28;19929;-45
2020/12/13 07:44:05;;;;;;;;;;;8.00;85.90;;;;;;5006285;28;19940;-47
2020/12/13 07:46:32;;;;;;;;;;;8.00;85.80;;;;;;5002241;28;19940;-43
2020/12/13 07:49:03;;;;;;;;;;;8.00;85.90;;;;;;5004838;28;19949;-44
2020/12/13 07:51:30;;;;;;;;;;;8.00;85.90;;;;;;4998990;28;20286;-46
2020/12/13 07:53:56;;;;;;;;;;;8.00;85.90;;;;;;5004023;28;20470;-47
2020/12/13 07:56:24;;;;;;;;;;;8.10;86.00;;;;;;5002720;28;20588;-44
2020/12/13 07:58:51;;;;;;;;;;;8.10;86.00;;;;;;5003811;28;19933;-43
2020/12/13 08:01:17;;;;;;;;;;;8.10;86.00;;;;;;5002844;28;19929;-47
2020/12/13 08:03:45;;;;;;;;;;;8.10;86.00;;;;;;5005977;28;19953;-46
2020/12/13 08:06:13;;;;;;;;;;;8.10;86.00;;;;;;5024618;28;19925;-45
2020/12/13 08:08:45;;;;;;;;;;;8.10;86.10;;;;;;5007404;28;20378;-47
2020/12/13 08:11:12;;;;;;;;;;;8.10;86.10;;;;;;5004863;28;20265;-47
2020/12/13 08:13:49;;;;;;;;;;;8.10;86.20;;;;;;5007399;28;19933;-46
2020/12/13 08:16:15;;;;;;;;;;;8.20;86.30;;;;;;5009491;28;19929;-46
2020/12/13 08:18:44;;;;;;;;;;;8.20;86.40;;;;;;5008930;28;19969;-47
2020/12/13 08:21:12;;;;;;;;;;;8.20;86.40;;;;;;5022745;28;19925;-46
2020/12/13 08:23:38;;;;;;;;;;;8.20;86.70;;;;;;5022971;28;20304;-44
2020/12/13 08:26:20;;;;;;;;;;;8.20;86.70;;;;;;5018647;28;20388;-45
2020/12/13 08:28:47;;;;;;;;;;;8.30;86.70;;;;;;5009566;28;20292;-44
2020/12/13 08:31:16;;;;;;;;;;;8.30;86.70;;;;;;5008146;28;19939;-46
2020/12/13 08:33:43;;;;;;;;;;;8.30;86.60;;;;;;5009281;28;19936;-45
2020/12/13 08:36:16;;;;;;;;;;;8.30;86.60;;;;;;5009901;28;19936;-45
2020/12/13 08:38:43;;;;;;;;;;;8.40;86.70;;;;;;5006402;28;19940;-45
2020/12/13 08:41:12;;;;;;;;;;;8.40;86.70;;;;;;5008268;28;19936;-44
2020/12/13 08:43:39;;;;;;;;;;;8.40;86.70;;;;;;5006443;28;20236;-45
2020/12/13 08:46:05;;;;;;;;;;;8.40;86.90;;;;;;5006051;28;19933;-45
2020/12/13 08:48:35;;;;;;;;;;;8.40;86.70;;;;;;5007637;28;20316;-42
2020/12/13 08:51:08;;;;;;;;;;;8.40;86.80;;;;;;5014241;28;19944;-48
2020/12/13 08:53:35;;;;;;;;;;;8.50;86.50;;;;;;5000825;28;19938;-46
2020/12/13 08:56:01;;;;;;;;;;;8.60;86.40;;;;;;5007525;28;19936;-45
2020/12/13 08:58:27;;;;;;;;;;;8.60;86.30;;;;;;5007965;28;19936;-47
2020/12/13 09:01:03;;;;;;;;;;;8.60;86.20;;;;;;5012913;28;19932;-46
2020/12/13 09:03:29;;;;;;;;;;;8.70;86.30;;;;;;5009199;28;20396;-45
2020/12/13 09:05:55;;;;;;;;;;;8.60;86.30;;;;;;5010303;28;19939;-47
2020/12/13 09:08:22;;;;;;;;;;;8.60;86.20;;;;;;5007939;28;20466;-45
2020/12/13 09:10:49;;;;;;;;;;;8.70;86.00;;;;;;5008274;28;20381;-43
2020/12/13 09:13:15;;;;;;;;;;;8.70;85.90;;;;;;5009751;28;19926;-46
2020/12/13 09:15:41;;;;;;;;;;;8.80;85.70;;;;;;5009770;28;20356;-46
2020/12/13 09:18:09;;;;;;;;;;;8.80;85.60;;;;;;5007785;28;19933;-47
2020/12/13 09:20:36;;;;;;;;;;;8.80;85.60;;;;;;5010218;28;19925;-44
2020/12/13 09:23:13;;;;;;;;;;;8.90;85.20;;;;;;5008184;28;20015;-45
2020/12/13 09:25:41;;;;;;;;;;;8.90;85.30;;;;;;5006883;28;19972;-47
2020/12/13 09:28:07;;;;;;;;;;;8.90;85.10;;;;;;5009752;28;19925;-44
2020/12/13 09:30:34;;;;;;;;;;;8.90;85.10;;;;;;5007380;28;20055;-44
2020/12/13 09:33:01;;;;;;;;;;;8.90;84.80;;;;;;5010648;28;20289;-47
2020/12/13 09:35:30;;;;;;;;;;;8.90;84.60;;;;;;5007874;28;19929;-44
2020/12/13 09:37:57;;;;;;;;;;;8.90;84.50;;;;;;5006360;28;19929;-47
2020/12/13 09:40:23;;;;;;;;;;;8.90;84.30;;;;;;5021880;28;20515;-46
2020/12/13 09:42:49;;;;;;;;;;;8.90;84.30;;;;;;5006307;28;19925;-44
2020/12/13 09:45:15;;;;;;;;;;;8.90;84.20;;;;;;5014562;28;20366;-47
2020/12/13 09:47:41;;;;;;;;;;;8.90;84.00;;;;;;5004925;28;20688;-44
2020/12/13 09:50:08;;;;;;;;;;;8.90;84.00;;;;;;5006470;28;19965;-45
2020/12/13 09:52:34;;;;;;;;;;;8.80;83.80;;;;;;5010336;28;20352;-45
2020/12/13 09:55:00;;;;;;;;;;;8.80;83.80;;;;;;5007438;28;19972;-47
2020/12/13 09:57:31;;;;;;;;;;;8.80;83.80;;;;;;5005832;28;20378;-45
2020/12/13 09:59:58;;;;;;;;;;;8.80;84.10;;;;;;5006530;28;19925;-46
2020/12/13 10:02:25;;;;;;;;;;;8.90;84.40;;;;;;5002047;28;20271;-46
2020/12/13 10:04:52;;;;;;;;;;;8.90;84.60;;;;;;5008935;28;20369;-46
2020/12/13 10:07:29;;;;;;;;;;;9.00;84.60;;;;;;5006825;28;20250;-46
2020/12/13 10:09:56;;;;;;;;;;;9.10;84.60;;;;;;5007392;28;19925;-46
2020/12/13 10:12:22;;;;;;;;;;;9.20;84.20;;;;;;5006182;28;20024;-45
2020/12/13 10:14:49;;;;;;;;;;;9.30;84.10;;;;;;5005745;28;19951;-46
2020/12/13 10:17:15;;;;;;;;;;;9.30;84.00;;;;;;5007159;28;19929;-44
2020/12/13 10:19:42;;;;;;;;;;;9.40;84.10;;;;;;5010067;28;19960;-44
2020/12/13 10:22:08;;;;;;;;;;;9.40;83.90;;;;;;5006843;28;19983;-47
2020/12/13 10:24:34;;;;;;;;;;;9.50;83.40;;;;;;5012700;28;20385;-46
2020/12/13 10:27:01;;;;;;;;;;;9.50;82.90;;;;;;5007708;28;19936;-46
2020/12/13 10:29:27;;;;;;;;;;;9.60;82.70;;;;;;5006404;28;20305;-46
2020/12/13 10:31:53;;;;;;;;;;;9.70;82.70;;;;;;5020460;28;19929;-45
2020/12/13 10:34:24;;;;;;;;;;;9.70;82.70;;;;;;4996612;28;20380;-43
2020/12/13 10:36:51;;;;;;;;;;;9.70;82.30;;;;;;5006054;28;19995;-46
2020/12/13 10:39:20;;;;;;;;;;;9.80;82.30;;;;;;5009217;28;19932;-47
2020/12/13 10:41:47;;;;;;;;;;;9.80;82.30;;;;;;5005632;28;19929;-44
2020/12/13 10:44:16;;;;;;;;;;;9.80;82.20;;;;;;5008999;28;19933;-45
2020/12/13 10:46:42;;;;;;;;;;;9.80;81.70;;;;;;5005576;28;20348;-47
2020/12/13 10:49:09;;;;;;;;;;;9.90;81.30;;;;;;5008063;28;19933;-45
2020/12/13 10:51:35;;;;;;;;;;;9.90;81.30;;;;;;5008955;28;20392;-45
2020/12/13 10:54:02;;;;;;;;;;;9.90;81.70;;;;;;5009763;28;19929;-43
2020/12/13 10:56:28;;;;;;;;;;;9.90;81.80;;;;;;5007913;28;19939;-44
2020/12/13 10:58:54;;;;;;;;;;;10.00;81.60;;;;;;5011296;28;19933;-45
2020/12/13 11:01:20;;;;;;;;;;;10.00;81.30;;;;;;5006153;28;20403;-46
2020/12/13 11:03:46;;;;;;;;;;;10.10;81.90;;;;;;5005445;28;20433;-48
2020/12/13 11:06:15;;;;;;;;;;;10.20;81.80;;;;;;5004343;28;19926;-46
2020/12/13 11:08:44;;;;;;;;;;;10.20;80.50;;;;;;5007320;28;20070;-45
2020/12/13 11:11:10;;;;;;;;;;;10.30;79.30;;;;;;5004765;28;20000;-44
2020/12/13 11:13:38;;;;;;;;;;;10.30;77.40;;;;;;5006930;28;19940;-46
2020/12/13 11:16:04;;;;;;;;;;;10.30;76.50;;;;;;5010852;28;19999;-45
2020/12/13 11:18:32;;;;;;;;;;;10.40;76.80;;;;;;5006339;28;20044;-45
2020/12/13 11:20:58;;;;;;;;;;;10.40;77.60;;;;;;5006301;28;19925;-46
2020/12/13 11:23:24;;;;;;;;;;;10.40;77.60;;;;;;5005343;28;19933;-45
2020/12/13 11:25:51;;;;;;;;;;;10.40;77.70;;;;;;5006402;28;19960;-45
2020/12/13 11:28:18;;;;;;;;;;;10.30;77.50;;;;;;5009955;28;19926;-42
2020/12/13 11:30:44;;;;;;;;;;;10.40;77.20;;;;;;5004412;28;20319;-46
2020/12/13 11:33:10;;;;;;;;;;;10.30;77.10;;;;;;5008772;28;19925;-45
2020/12/13 11:35:36;;;;;;;;;;;10.40;76.70;;;;;;5006962;28;19926;-45
2020/12/13 11:38:03;;;;;;;;;;;10.40;77.20;;;;;;5006116;28;19928;-46
2020/12/13 11:40:29;;;;;;;;;;;10.40;77.00;;;;;;5007524;28;19929;-46
2020/12/13 11:42:55;;;;;;;;;;;10.40;77.10;;;;;;5007216;28;19925;-48
2020/12/13 11:45:21;;;;;;;;;;;10.40;76.70;;;;;;5013897;28;19925;-42
2020/12/13 11:47:50;;;;;;;;;;;10.40;76.10;;;;;;5006985;28;19936;-48
2020/12/13 11:50:16;;;;;;;;;;;10.40;76.30;;;;;;5005974;28;19931;-47
2020/12/13 11:52:45;;;;;;;;;;;10.40;75.60;;;;;;5004913;28;20297;-43
2020/12/13 11:55:11;;;;;;;;;;;10.50;74.60;;;;;;5002353;28;19933;-46
2020/12/13 11:57:37;;;;;;;;;;;10.50;73.20;;;;;;5007290;28;19925;-44
2020/12/13 12:00:16;;;;;;;;;;;10.50;73.20;;;;;;4995608;28;20015;-44
2020/12/13 12:02:48;;;;;;;;;;;10.50;73.00;;;;;;5014656;28;19956;-44
2020/12/13 12:05:14;;;;;;;;;;;10.40;72.30;;;;;;5006096;28;19933;-43
2020/12/13 12:07:41;;;;;;;;;;;10.50;71.30;;;;;;5006805;28;19933;-43
2020/12/13 12:10:07;;;;;;;;;;;10.50;71.30;;;;;;5004084;28;19948;-47
2020/12/13 12:12:33;;;;;;;;;;;10.50;71.80;;;;;;5010996;28;19929;-45
2020/12/13 12:14:59;;;;;;;;;;;10.50;71.50;;;;;;5007107;28;19932;-42
2020/12/13 12:17:28;;;;;;;;;;;10.60;70.00;;;;;;5020717;28;19925;-44
2020/12/13 12:19:54;;;;;;;;;;;10.60;70.10;;;;;;5005425;28;19934;-46
2020/12/13 12:22:20;;;;;;;;;;;10.60;70.30;;;;;;5005826;28;19929;-45
2020/12/13 12:24:46;;;;;;;;;;;10.60;69.80;;;;;;5004279;28;19943;-45
2020/12/13 12:27:12;;;;;;;;;;;10.60;68.80;;;;;;5005532;28;19937;-44
2020/12/13 12:29:38;;;;;;;;;;;10.60;69.80;;;;;;5002613;28;19925;-45
2020/12/13 12:32:04;;;;;;;;;;;10.60;70.00;;;;;;5005215;28;19933;-45
2020/12/13 12:34:31;;;;;;;;;;;10.70;69.90;;;;;;5002318;28;20559;-43
2020/12/13 12:36:57;;;;;;;;;;;10.70;70.80;;;;;;5006998;28;20532;-44
2020/12/13 12:39:23;;;;;;;;;;;10.60;69.90;;;;;;5002277;28;20325;-46
2020/12/13 12:41:49;;;;;;;;;;;10.70;70.30;;;;;;5002301;28;19933;-45
2020/12/13 12:44:15;;;;;;;;;;;10.70;70.80;;;;;;5002241;28;19925;-48
2020/12/13 12:46:44;;;;;;;;;;;10.80;70.60;;;;;;5003827;28;20363;-45
2020/12/13 12:49:10;;;;;;;;;;;10.80;70.30;;;;;;5005738;28;19933;-45
2020/12/13 12:51:37;;;;;;;;;;;10.90;70.30;;;;;;5009234;28;19936;-43
2020/12/13 12:54:03;;;;;;;;;;;10.80;69.70;;;;;;5013071;28;19925;-45
2020/12/13 12:56:29;;;;;;;;;;;10.90;68.70;;;;;;5010762;28;19925;-44
2020/12/13 12:59:09;;;;;;;;;;;10.90;69.60;;;;;;5011151;28;20027;-43
2020/12/13 13:01:39;;;;;;;;;;;10.90;69.60;;;;;;5009727;28;20268;-45
2020/12/13 13:04:10;;;;;;;;;;;10.90;69.50;;;;;;5009850;28;20415;-46
2020/12/13 13:09:37;;;;;;;;;;;10.90;67.50;;;;;;5005844;28;19925;-46
2020/12/13 13:12:03;;;;;;;;;;;10.90;69.00;;;;;;5008680;28;19932;-44
2020/12/13 13:14:32;;;;;;;;;;;10.90;69.10;;;;;;5007460;28;19933;-45
2020/12/13 13:17:04;;;;;;;;;;;10.90;68.50;;;;;;5007239;28;19929;-47
2020/12/13 13:19:33;;;;;;;;;;;10.90;68.50;;;;;;5001551;28;20087;-43
2020/12/13 13:22:01;;;;;;;;;;;10.90;68.40;;;;;;5007742;28;19976;-43
2020/12/13 13:24:28;;;;;;;;;;;10.90;68.50;;;;;;5006995;28;19929;-43
2020/12/13 13:26:54;;;;;;;;;;;10.90;68.60;;;;;;5009995;28;19936;-44
2020/12/13 13:29:20;;;;;;;;;;;10.90;68.70;;;;;;5008285;28;19976;-46
2020/12/13 13:31:46;;;;;;;;;;;10.90;69.10;;;;;;5009107;28;19931;-46
2020/12/13 13:34:13;;;;;;;;;;;10.90;68.90;;;;;;5014798;28;19957;-42
2020/12/13 13:36:39;;;;;;;;;;;10.90;68.90;;;;;;5010938;28;19960;-45
2020/12/13 13:39:06;;;;;;;;;;;10.90;68.80;;;;;;5008041;28;19936;-47
2020/12/13 13:41:35;;;;;;;;;;;10.90;68.90;;;;;;5010845;28;20377;-45
2020/12/13 13:44:09;;;;;;;;;;;10.90;68.70;;;;;;5013200;28;19984;-44
2020/12/13 13:49:25;;;;;;;;;;;11.00;70.20;;;;;;5006687;28;20293;-44
2020/12/13 13:51:52;;;;;;;;;;;11.00;70.40;;;;;;5007882;28;19935;-44
2020/12/13 13:54:19;;;;;;;;;;;11.00;69.50;;;;;;5022621;28;20377;-43
2020/12/13 13:56:49;;;;;;;;;;;11.00;69.70;;;;;;5009870;28;20552;-45
2020/12/13 13:59:20;;;;;;;;;;;11.00;69.70;;;;;;5011660;28;19936;-45
2020/12/13 14:01:46;;;;;;;;;;;10.90;69.50;;;;;;5004882;28;19932;-43
2020/12/13 14:04:16;;;;;;;;;;;10.80;69.30;;;;;;5005915;28;20327;-46
2020/12/13 14:06:57;;;;;;;;;;;10.70;69.50;;;;;;5007335;28;19929;-45
2020/12/13 14:09:23;;;;;;;;;;;10.70;70.00;;;;;;5004817;28;19935;-45
2020/12/13 14:11:50;;;;;;;;;;;10.70;70.40;;;;;;5006752;28;19982;-47
2020/12/13 14:14:20;;;;;;;;;;;10.70;70.40;;;;;;5008014;28;20008;-43
2020/12/13 14:16:46;;;;;;;;;;;10.70;70.50;;;;;;5006731;28;19936;-45
2020/12/13 14:19:13;;;;;;;;;;;10.70;70.50;;;;;;5007406;28;20019;-44
2020/12/13 14:21:39;;;;;;;;;;;10.60;70.00;;;;;;5006875;28;19930;-48
2020/12/13 14:24:06;;;;;;;;;;;10.60;70.00;;;;;;5006958;28;21512;-44
2020/12/13 14:26:33;;;;;;;;;;;10.70;70.20;;;;;;5003230;28;20365;-45
2020/12/13 14:28:59;;;;;;;;;;;10.80;70.40;;;;;;5007799;28;19975;-44
2020/12/13 14:31:25;;;;;;;;;;;10.80;70.10;;;;;;5005573;28;20029;-46
2020/12/13 14:33:52;;;;;;;;;;;10.80;69.20;;;;;;5003123;28;19944;-46
2020/12/13 14:36:19;;;;;;;;;;;10.80;68.30;;;;;;5006747;28;19926;-46